createdAt,value
2022-11-14T00:01:00.286Z,34.00
2022-11-14T00:03:46.643Z,34.00
2022-11-14T00:06:33.220Z,40.50
2022-11-14T00:09:19.615Z,39.50
2022-11-14T00:12:06.807Z,39.00
2022-11-14T00:14:55.873Z,38.00
2022-11-14T00:17:43.688Z,39.00
2022-11-14T00:20:30.537Z,38.00
2022-11-14T00:23:16.845Z,40.75
2022-11-14T00:26:03.126Z,42.25
2022-11-14T00:28:49.405Z,41.75
2022-11-14T00:31:35.672Z,42.60
2022-11-14T00:34:23.317Z,40.75
2022-11-14T00:37:09.797Z,45.00
2022-11-14T00:39:56.068Z,45.25
2022-11-14T00:42:43.213Z,43.00
2022-11-14T00:45:29.750Z,40.75
2022-11-14T00:48:16.203Z,42.40
2022-11-14T00:51:03.994Z,41.00
2022-11-14T00:53:50.321Z,43.25
2022-11-14T00:56:36.647Z,45.20
2022-11-14T00:59:23.065Z,42.25
2022-11-14T01:02:09.393Z,46.80
2022-11-14T01:04:55.696Z,46.00
2022-11-14T01:07:43.380Z,47.80
2022-11-14T01:10:29.666Z,45.00
2022-11-14T01:13:16.073Z,45.00
2022-11-14T01:16:02.594Z,46.25
2022-11-14T01:18:49.170Z,41.75
2022-11-14T01:21:35.325Z,45.25
2022-11-14T01:24:23.154Z,47.25
2022-11-14T01:27:09.469Z,45.80
2022-11-14T01:29:55.680Z,48.00
2022-11-14T01:32:42.159Z,45.75
2022-11-14T01:35:28.427Z,45.00
2022-11-14T01:38:15.654Z,48.80
2022-11-14T01:41:03.968Z,47.00
2022-11-14T01:43:50.371Z,48.00
2022-11-14T01:46:37.561Z,46.50
2022-11-14T01:49:26.022Z,46.40
2022-11-14T01:52:14.514Z,49.00
2022-11-14T01:55:02.230Z,47.25
2022-11-14T01:57:50.098Z,44.00
2022-11-14T02:00:36.558Z,47.50
2022-11-14T02:03:23.168Z,47.25
2022-11-14T02:06:10.686Z,49.00
2022-11-14T02:08:56.954Z,45.20
2022-11-14T02:11:44.787Z,43.00
2022-11-14T02:14:32.851Z,45.00
2022-11-14T02:17:29.586Z,47.80
2022-11-14T02:20:20.785Z,46.00
2022-11-14T02:23:07.113Z,46.00
2022-11-14T02:25:53.410Z,44.20
2022-11-14T02:28:39.749Z,47.20
2022-11-14T02:31:26.144Z,48.00
2022-11-14T02:34:13.048Z,48.40
2022-11-14T02:37:00.850Z,46.00
2022-11-14T02:39:48.352Z,45.33
2022-11-14T02:42:34.882Z,48.75
2022-11-14T02:45:21.469Z,47.80
2022-11-14T02:48:08.136Z,46.00
2022-11-14T02:50:54.549Z,47.00
2022-11-14T02:53:42.246Z,47.00
2022-11-14T02:56:28.489Z,46.75
2022-11-14T02:59:14.941Z,45.00
2022-11-14T03:02:01.354Z,44.50
2022-11-14T03:04:48.095Z,45.25
2022-11-14T03:07:34.524Z,45.25
2022-11-14T03:10:23.193Z,45.25
2022-11-14T03:13:09.683Z,45.60
2022-11-14T03:15:56.417Z,48.60
2022-11-14T03:18:42.811Z,43.50
2022-11-14T03:21:29.265Z,47.00
2022-11-14T03:24:15.608Z,45.00
2022-11-14T03:27:03.482Z,47.00
2022-11-14T03:29:49.799Z,47.00
2022-11-14T03:32:36.722Z,45.25
2022-11-14T03:35:23.170Z,44.00
2022-11-14T03:38:09.470Z,46.40
2022-11-14T03:40:55.777Z,44.00
2022-11-14T03:43:43.607Z,45.00
2022-11-14T03:46:29.962Z,47.00
2022-11-14T03:49:16.257Z,49.25
2022-11-14T03:52:02.740Z,48.00
2022-11-14T03:54:50.368Z,49.50
2022-11-14T03:57:36.709Z,46.00
2022-11-14T04:00:25.096Z,46.75
2022-11-14T04:03:11.557Z,45.80
2022-11-14T04:05:57.935Z,45.00
2022-11-14T04:08:44.403Z,44.40
2022-11-14T04:11:30.881Z,46.40
2022-11-14T04:14:17.147Z,44.25
2022-11-14T04:17:04.923Z,45.00
2022-11-14T04:19:51.775Z,48.25
2022-11-14T04:22:38.113Z,46.00
2022-11-14T04:25:24.565Z,42.80
2022-11-14T04:28:11.324Z,45.00
2022-11-14T04:30:57.827Z,44.25
2022-11-14T04:33:45.410Z,46.40
2022-11-14T04:36:31.903Z,50.50
2022-11-14T04:39:18.185Z,46.00
2022-11-14T04:42:04.605Z,46.25
2022-11-14T04:44:51.151Z,44.00
2022-11-14T04:47:37.901Z,45.20
2022-11-14T04:50:25.700Z,43.75
2022-11-14T04:53:12.172Z,46.00
2022-11-14T04:55:58.564Z,49.75
2022-11-14T04:58:45.061Z,47.00
2022-11-14T05:01:31.646Z,45.50
2022-11-14T05:04:18.179Z,45.00
2022-11-14T05:07:06.028Z,47.75
2022-11-14T05:09:52.869Z,46.40
2022-11-14T05:12:39.191Z,45.25
2022-11-14T05:15:26.189Z,47.00
2022-11-14T05:18:12.751Z,47.00
2022-11-14T05:21:00.153Z,45.00
2022-11-14T05:23:47.778Z,45.00
2022-11-14T05:26:34.726Z,46.50
2022-11-14T05:29:21.065Z,46.00
2022-11-14T05:32:10.137Z,45.00
2022-11-14T05:34:58.979Z,47.00
2022-11-14T05:37:45.424Z,47.80
2022-11-14T05:40:33.067Z,47.00
2022-11-14T05:43:19.362Z,49.40
2022-11-14T05:46:07.496Z,44.25
2022-11-14T05:48:54.086Z,46.50
2022-11-14T05:51:40.583Z,51.00
2022-11-14T05:54:26.954Z,44.50
2022-11-14T05:57:14.721Z,46.60
2022-11-14T06:00:00.975Z,45.00
2022-11-14T06:02:47.531Z,48.50
2022-11-14T06:05:33.962Z,48.40
2022-11-14T06:08:20.583Z,50.00
2022-11-14T06:11:07.855Z,48.75
2022-11-14T06:13:55.808Z,45.00
2022-11-14T06:16:42.197Z,45.25
2022-11-14T06:19:29.041Z,49.00
2022-11-14T06:22:15.481Z,49.00
2022-11-14T06:25:01.834Z,60.00
2022-11-14T06:27:48.255Z,45.50
2022-11-14T06:30:36.043Z,47.00
2022-11-14T06:33:22.337Z,42.00
2022-11-14T06:36:09.781Z,42.60
2022-11-14T06:38:56.630Z,46.80
2022-11-14T06:41:42.969Z,46.80
2022-11-14T06:44:31.027Z,46.60
2022-11-14T06:47:19.055Z,47.00
2022-11-14T06:50:05.999Z,49.00
2022-11-14T06:52:52.302Z,44.80
2022-11-14T06:55:38.690Z,47.00
2022-11-14T06:58:27.254Z,46.80
2022-11-14T07:01:14.476Z,41.00
2022-11-14T07:04:02.481Z,44.00
2022-11-14T07:06:48.917Z,49.80
2022-11-14T07:09:35.694Z,46.75
2022-11-14T07:12:22.067Z,44.00
2022-11-14T07:15:09.550Z,46.20
2022-11-14T07:17:56.205Z,45.50
2022-11-14T07:20:43.944Z,47.00
2022-11-14T07:23:30.291Z,46.60
2022-11-14T07:26:16.677Z,45.40
2022-11-14T07:29:03.101Z,45.00
2022-11-14T07:31:49.730Z,47.80
2022-11-14T07:34:36.739Z,42.00
2022-11-14T07:37:25.360Z,45.00
2022-11-14T07:40:13.074Z,42.60
2022-11-14T07:43:00.803Z,45.00
2022-11-14T07:45:47.474Z,46.60
2022-11-14T07:48:33.847Z,44.00
2022-11-14T07:51:21.061Z,47.50
2022-11-14T07:54:11.224Z,46.50
2022-11-14T07:56:57.539Z,46.00
2022-11-14T07:59:43.955Z,44.20
2022-11-14T08:02:30.371Z,46.00
2022-11-14T08:05:16.763Z,45.75
2022-11-14T08:08:03.730Z,46.75
2022-11-14T08:10:51.463Z,45.50
2022-11-14T08:13:37.613Z,45.00
2022-11-14T08:16:24.102Z,45.00
2022-11-14T08:19:11.074Z,49.00
2022-11-14T08:21:57.411Z,47.00
2022-11-14T08:24:43.727Z,43.00
2022-11-14T08:27:31.469Z,42.60
2022-11-14T08:30:18.298Z,47.00
2022-11-14T08:33:04.818Z,43.00
2022-11-14T08:35:51.544Z,46.25
2022-11-14T08:38:37.901Z,47.40
2022-11-14T08:41:24.150Z,46.25
2022-11-14T08:44:12.054Z,47.00
2022-11-14T08:47:00.396Z,41.40
2022-11-14T08:49:46.919Z,47.80
2022-11-14T08:52:33.277Z,47.60
2022-11-14T08:55:19.745Z,44.00
2022-11-14T08:58:06.061Z,44.50
2022-11-14T09:00:53.807Z,43.00
2022-11-14T09:03:40.061Z,42.80
2022-11-14T09:06:26.892Z,43.40
2022-11-14T09:09:13.376Z,42.25
2022-11-14T09:11:59.863Z,45.00
2022-11-14T09:14:46.187Z,44.50
2022-11-14T09:17:35.364Z,46.25
2022-11-14T09:20:24.870Z,44.00
2022-11-14T09:23:15.081Z,43.00
2022-11-14T09:26:05.010Z,43.75
2022-11-14T09:28:51.364Z,44.50
2022-11-14T09:31:37.737Z,43.00
2022-11-14T09:34:25.558Z,43.20
2022-11-14T09:37:11.914Z,43.00
2022-11-14T09:39:58.413Z,43.00
2022-11-14T09:42:55.361Z,43.75
2022-11-14T09:45:43.502Z,42.00
2022-11-14T09:48:30.837Z,38.00
2022-11-14T09:51:21.237Z,42.75
2022-11-14T09:54:12.413Z,41.00
2022-11-14T09:56:58.965Z,39.40
2022-11-14T09:59:45.541Z,44.00
2022-11-14T10:02:41.373Z,41.00
2022-11-14T10:05:54.213Z,41.00
2022-11-14T10:08:50.649Z,39.50
2022-11-14T10:11:39.078Z,39.00
2022-11-14T10:14:39.437Z,43.60
2022-11-14T10:17:46.565Z,39.00
2022-11-14T10:20:35.126Z,37.20
2022-11-14T10:23:28.498Z,38.00
2022-11-14T10:26:20.870Z,42.00
2022-11-14T10:29:52.407Z,41.50
2022-11-14T10:32:56.933Z,36.25
2022-11-14T10:35:44.653Z,37.40
2022-11-14T10:38:33.323Z,38.00
2022-11-14T10:41:41.827Z,38.00
2022-11-14T10:44:31.759Z,37.20
2022-11-14T10:47:19.816Z,38.00
2022-11-14T10:50:13.496Z,37.50
2022-11-14T10:53:01.937Z,42.60
2022-11-14T10:56:03.799Z,38.00
2022-11-14T10:58:52.722Z,40.50
2022-11-14T11:01:40.050Z,39.60
2022-11-14T11:04:27.780Z,40.25
2022-11-14T11:07:54.666Z,39.25
2022-11-14T11:11:00.653Z,37.25
2022-11-14T11:13:54.025Z,40.80
2022-11-14T11:16:40.301Z,42.00
2022-11-14T11:19:27.524Z,36.00
2022-11-14T11:22:31.554Z,38.00
2022-11-14T11:25:25.539Z,41.50
2022-11-14T11:28:13.875Z,42.20
2022-11-14T11:31:02.471Z,40.00
2022-11-14T11:33:48.943Z,40.00
2022-11-14T11:40:44.514Z,39.25
2022-11-14T11:43:38.760Z,39.20
2022-11-14T11:46:30.478Z,44.50
2022-11-14T11:49:18.331Z,40.40
2022-11-14T11:52:06.002Z,37.40
2022-11-14T11:54:57.868Z,39.25
2022-11-14T11:57:45.121Z,41.60
2022-11-14T12:00:31.900Z,38.00
2022-11-14T12:03:20.824Z,39.25
2022-11-14T12:06:12.708Z,39.50
2022-11-14T12:09:06.384Z,39.80
2022-11-14T12:11:53.959Z,40.00
2022-11-14T12:14:53.802Z,39.60
2022-11-14T12:17:54.796Z,40.80
2022-11-14T12:20:58.360Z,37.25
2022-11-14T12:24:05.396Z,39.25
2022-11-14T12:27:04.778Z,38.00
2022-11-14T12:29:58.736Z,37.00
2022-11-14T12:32:46.682Z,38.67
2022-11-14T12:35:34.162Z,39.00
2022-11-14T12:38:22.060Z,36.60
2022-11-14T12:41:08.550Z,37.00
2022-11-14T12:43:55.728Z,38.00
2022-11-14T12:47:14.529Z,35.00
2022-11-14T12:50:28.812Z,40.00
2022-11-14T12:53:46.955Z,41.25
2022-11-14T12:56:56.560Z,37.00
2022-11-14T12:59:54.941Z,37.75
2022-11-14T13:03:14.438Z,40.00
2022-11-14T13:06:01.970Z,41.25
2022-11-14T13:09:09.065Z,37.60
2022-11-14T13:12:13.192Z,38.00
2022-11-14T13:15:16.805Z,39.25
2022-11-14T13:18:32.224Z,35.67
2022-11-14T13:21:43.803Z,40.60
2022-11-14T13:24:58.118Z,38.67
2022-11-14T13:28:06.613Z,41.60
2022-11-14T13:31:07.016Z,38.00
2022-11-14T13:33:54.256Z,38.20
2022-11-14T13:36:42.997Z,41.00
2022-11-14T13:39:31.339Z,40.25
2022-11-14T13:42:27.234Z,38.50
2022-11-14T13:45:35.183Z,42.25
2022-11-14T13:48:35.880Z,39.00
2022-11-14T13:51:42.185Z,38.00
2022-11-14T13:54:28.855Z,52.75
2022-11-14T13:57:16.667Z,67.00
2022-11-14T14:00:16.759Z,36.40
2022-11-14T14:03:16.528Z,40.75
2022-11-14T14:06:11.453Z,39.00
2022-11-14T14:09:15.794Z,37.00
2022-11-14T14:12:14.371Z,39.50
2022-11-14T14:15:19.860Z,37.50
2022-11-14T14:18:09.992Z,36.00
2022-11-14T14:20:59.551Z,40.25
2022-11-14T14:23:49.149Z,39.00
2022-11-14T14:26:39.506Z,39.75
2022-11-14T14:29:28.004Z,38.00
2022-11-14T14:32:16.743Z,39.60
2022-11-14T14:35:25.319Z,38.40
2022-11-14T14:38:12.234Z,38.00
2022-11-14T14:40:58.656Z,38.00
2022-11-14T14:43:50.461Z,42.00
2022-11-14T14:46:36.696Z,36.00
2022-11-14T14:49:25.735Z,43.00
2022-11-14T14:52:22.365Z,42.25
2022-11-14T14:55:19.137Z,40.00
2022-11-14T14:58:27.090Z,36.20
2022-11-14T15:01:14.684Z,41.75
2022-11-14T15:04:03.379Z,36.80
2022-11-14T15:06:51.470Z,38.00
2022-11-14T15:09:38.349Z,37.00
2022-11-14T15:12:24.969Z,42.40
2022-11-14T15:15:13.863Z,42.20
2022-11-14T15:18:00.655Z,40.00
2022-11-14T15:20:47.149Z,37.20
2022-11-14T15:23:34.825Z,41.00
2022-11-14T15:26:21.193Z,42.00
2022-11-14T15:29:08.620Z,43.00
2022-11-14T15:31:56.565Z,54.75
2022-11-14T15:34:43.056Z,50.20
2022-11-14T15:37:29.484Z,49.25
2022-11-14T15:40:21.187Z,46.00
2022-11-14T15:43:39.321Z,44.60
2022-11-14T15:46:28.064Z,48.00
2022-11-14T15:49:22.879Z,46.50
2022-11-14T15:52:19.026Z,47.20
2022-11-14T15:55:10.008Z,44.50
2022-11-14T15:58:26.071Z,47.75
2022-11-14T16:01:04.418Z,48.40
2022-11-14T16:03:51.758Z,44.20
2022-11-14T16:06:38.300Z,46.00
2022-11-14T16:09:24.546Z,49.50
2022-11-14T16:12:10.846Z,45.00
2022-11-14T16:14:58.558Z,45.00
2022-11-14T16:17:46.024Z,48.00
2022-11-14T16:20:37.300Z,49.75
2022-11-14T16:23:26.423Z,48.00
2022-11-14T16:26:13.162Z,46.50
2022-11-14T16:28:59.612Z,47.00
2022-11-14T16:31:47.367Z,46.80
2022-11-14T16:34:33.937Z,46.75
2022-11-14T16:37:20.376Z,42.75
2022-11-14T16:40:07.464Z,45.80
2022-11-14T16:42:55.180Z,42.40
2022-11-14T16:45:41.933Z,43.00
2022-11-14T16:48:29.546Z,45.25
2022-11-14T16:51:46.124Z,40.75
2022-11-14T16:54:22.305Z,47.00
2022-11-14T16:57:08.538Z,49.00
2022-11-14T16:59:54.928Z,46.80
2022-11-14T17:02:41.518Z,49.50
2022-11-14T17:05:29.541Z,48.00
2022-11-14T17:08:16.226Z,51.00
2022-11-14T17:11:02.644Z,45.00
2022-11-14T17:13:49.083Z,50.00
2022-11-14T17:16:35.456Z,45.00
2022-11-14T17:19:21.981Z,46.80
2022-11-14T17:22:10.033Z,44.00
2022-11-14T17:24:57.301Z,47.00
2022-11-14T17:27:43.594Z,49.00
2022-11-14T17:30:30.024Z,46.50
2022-11-14T17:33:16.421Z,50.50
2022-11-14T17:36:05.053Z,48.75
2022-11-14T17:38:53.058Z,49.00
2022-11-14T17:41:39.773Z,51.00
2022-11-14T17:44:26.152Z,51.00
2022-11-14T17:47:12.599Z,51.00
2022-11-14T17:49:59.169Z,49.00
2022-11-14T17:52:45.457Z,47.00
2022-11-14T17:55:33.260Z,46.60
2022-11-14T17:58:19.655Z,49.50
2022-11-14T18:01:10.647Z,47.00
2022-11-14T18:04:01.649Z,48.50
2022-11-14T18:06:51.060Z,47.00
2022-11-14T18:09:37.823Z,49.00
2022-11-14T18:12:25.516Z,45.00
2022-11-14T18:15:11.780Z,48.75
2022-11-14T18:17:58.106Z,47.50
2022-11-14T18:20:45.114Z,46.20
2022-11-14T18:23:31.863Z,48.75
2022-11-14T18:26:18.878Z,48.00
2022-11-14T18:29:06.889Z,48.00
2022-11-14T18:31:53.619Z,49.40
2022-11-14T18:34:40.848Z,45.60
2022-11-14T18:37:27.780Z,49.00
2022-11-14T18:40:16.697Z,47.40
2022-11-14T18:43:03.580Z,49.50
2022-11-14T18:45:51.300Z,51.33
2022-11-14T18:48:38.322Z,49.00
2022-11-14T18:51:25.730Z,50.25
2022-11-14T18:54:13.119Z,51.00
2022-11-14T18:57:00.324Z,56.80
2022-11-14T18:59:46.665Z,59.00
2022-11-14T19:02:34.311Z,54.00
2022-11-14T19:05:20.937Z,56.00
2022-11-14T19:08:07.800Z,50.00
2022-11-14T19:10:54.554Z,50.80
2022-11-14T19:13:41.391Z,51.50
2022-11-14T19:16:27.797Z,49.00
2022-11-14T19:19:15.395Z,53.40
2022-11-14T19:22:01.708Z,51.25
2022-11-14T19:24:48.033Z,52.00
2022-11-14T19:27:34.321Z,52.00
2022-11-14T19:30:20.537Z,51.50
2022-11-14T19:33:07.005Z,48.80
2022-11-14T19:35:55.206Z,52.00
2022-11-14T19:38:42.248Z,48.60
2022-11-14T19:41:29.569Z,52.00
2022-11-14T19:44:15.809Z,54.00
2022-11-14T19:47:03.544Z,55.20
2022-11-14T19:49:50.354Z,52.60
2022-11-14T19:52:38.339Z,55.00
2022-11-14T19:55:25.116Z,52.00
2022-11-14T19:58:11.507Z,54.60
2022-11-14T20:01:02.452Z,52.00
2022-11-14T20:03:51.750Z,49.80
2022-11-14T20:06:38.024Z,50.00
2022-11-14T20:09:26.197Z,50.00
2022-11-14T20:12:12.571Z,51.25
2022-11-14T20:14:58.923Z,46.25
2022-11-14T20:17:45.143Z,52.00
2022-11-14T20:20:31.658Z,52.00
2022-11-14T20:23:17.937Z,52.00
2022-11-14T20:26:10.937Z,51.60
2022-11-14T20:28:57.903Z,51.40
2022-11-14T20:31:44.271Z,51.80
2022-11-14T20:34:31.151Z,51.80
2022-11-14T20:37:17.460Z,52.00
2022-11-14T20:40:03.887Z,46.00
2022-11-14T20:42:51.515Z,51.00
2022-11-14T20:45:37.699Z,50.00
2022-11-14T20:48:24.459Z,50.50
2022-11-14T20:51:12.622Z,45.80
2022-11-14T20:53:59.135Z,46.00
2022-11-14T20:56:45.439Z,48.00
2022-11-14T20:59:33.275Z,49.00
2022-11-14T21:02:19.834Z,50.75
2022-11-14T21:05:06.970Z,48.00
2022-11-14T21:07:53.404Z,47.20
2022-11-14T21:10:48.802Z,49.25
2022-11-14T21:13:53.171Z,48.60
2022-11-14T21:16:40.860Z,49.25
2022-11-14T21:19:29.204Z,51.50
2022-11-14T21:22:15.660Z,46.00
2022-11-14T21:25:02.219Z,50.00
2022-11-14T21:27:48.631Z,46.00
2022-11-14T21:30:35.564Z,51.00
2022-11-14T21:33:23.581Z,49.20
2022-11-14T21:36:29.995Z,46.00
2022-11-14T21:39:17.790Z,50.00
2022-11-14T21:42:04.320Z,49.00
2022-11-14T21:44:50.836Z,50.00
2022-11-14T21:47:37.090Z,50.50
2022-11-14T21:50:24.957Z,44.00
2022-11-14T21:53:16.142Z,75.00
2022-11-14T21:56:11.015Z,63.00
2022-11-14T21:59:11.802Z,86.60
2022-11-14T22:02:18.271Z,57.00
2022-11-14T22:05:05.274Z,51.25
2022-11-14T22:07:53.178Z,50.20
2022-11-14T22:10:39.678Z,48.80
2022-11-14T22:13:25.973Z,52.00
2022-11-14T22:16:16.119Z,45.20
2022-11-14T22:19:05.517Z,50.75
2022-11-14T22:21:52.999Z,50.20
2022-11-14T22:24:40.889Z,48.00
2022-11-14T22:27:27.748Z,49.00
2022-11-14T22:30:14.840Z,46.00
2022-11-14T22:33:01.742Z,47.75
2022-11-14T22:35:47.959Z,46.50
2022-11-14T22:38:35.172Z,42.60
2022-11-14T22:41:27.749Z,47.00
2022-11-14T22:44:17.520Z,51.00
2022-11-14T22:47:03.869Z,46.00
2022-11-14T22:49:50.177Z,48.00
2022-11-14T22:52:36.639Z,45.00
2022-11-14T22:55:23.448Z,46.00
2022-11-14T22:58:11.134Z,43.00
2022-11-14T23:00:57.552Z,48.50
2022-11-14T23:03:44.067Z,48.00
2022-11-14T23:06:31.171Z,46.00
2022-11-14T23:09:17.634Z,43.80
2022-11-14T23:12:03.921Z,45.25
2022-11-14T23:14:51.545Z,43.25
2022-11-14T23:17:38.571Z,45.50
2022-11-14T23:20:24.946Z,43.00
2022-11-14T23:23:11.318Z,47.00
2022-11-14T23:25:57.691Z,48.75
2022-11-14T23:28:44.112Z,46.20
2022-11-14T23:31:31.779Z,43.00
2022-11-14T23:34:18.243Z,46.80
2022-11-14T23:37:04.600Z,42.60
2022-11-14T23:39:50.896Z,46.25
2022-11-14T23:42:37.325Z,42.40
2022-11-14T23:45:23.716Z,47.20
2022-11-14T23:48:11.311Z,45.00
2022-11-14T23:50:57.936Z,48.00
2022-11-14T23:53:44.495Z,43.33
2022-11-14T23:56:30.799Z,44.75
2022-11-14T23:59:17.121Z,46.75
